sensor_id;sensor_type;location;lat;lon;timestamp;temperature;humidity
41058;DHT22;27499;48.884;2.258;2022-11-15T00:00:56;12.60;99.90
41058;DHT22;27499;48.884;2.258;2022-11-15T00:03:25;12.60;99.90
41058;DHT22;27499;48.884;2.258;2022-11-15T00:05:52;12.60;99.90
41058;DHT22;27499;48.884;2.258;2022-11-15T00:08:19;12.60;99.90
41058;DHT22;27499;48.884;2.258;2022-11-15T00:10:56;12.60;99.90
41058;DHT22;27499;48.884;2.258;2022-11-15T00:13:23;12.60;99.90
41058;DHT22;27499;48.884;2.258;2022-11-15T00:15:50;12.60;99.90
41058;DHT22;27499;48.884;2.258;2022-11-15T00:18:18;12.50;99.90
41058;DHT22;27499;48.884;2.258;2022-11-15T00:20:45;12.50;99.90
41058;DHT22;27499;48.884;2.258;2022-11-15T00:23:11;12.50;99.90
41058;DHT22;27499;48.884;2.258;2022-11-15T00:25:38;12.50;99.90
41058;DHT22;27499;48.884;2.258;2022-11-15T00:28:05;12.50;99.90
41058;DHT22;27499;48.884;2.258;2022-11-15T00:30:32;12.40;99.90
41058;DHT22;27499;48.884;2.258;2022-11-15T00:33:04;12.40;99.90
41058;DHT22;27499;48.884;2.258;2022-11-15T00:35:32;12.40;99.90
41058;DHT22;27499;48.884;2.258;2022-11-15T00:38:00;12.40;99.90
41058;DHT22;27499;48.884;2.258;2022-11-15T00:40:28;12.40;99.90
41058;DHT22;27499;48.884;2.258;2022-11-15T00:42:55;12.30;99.90
41058;DHT22;27499;48.884;2.258;2022-11-15T00:45:23;12.30;99.90
41058;DHT22;27499;48.884;2.258;2022-11-15T00:47:50;12.30;99.90
41058;DHT22;27499;48.884;2.258;2022-11-15T00:50:17;12.20;99.90
41058;DHT22;27499;48.884;2.258;2022-11-15T00:52:44;12.20;99.90
41058;DHT22;27499;48.884;2.258;2022-11-15T00:55:18;12.20;99.90
41058;DHT22;27499;48.884;2.258;2022-11-15T00:57:46;12.20;99.90
41058;DHT22;27499;48.884;2.258;2022-11-15T01:00:13;12.20;99.90
41058;DHT22;27499;48.884;2.258;2022-11-15T01:02:40;12.20;99.90
41058;DHT22;27499;48.884;2.258;2022-11-15T01:05:08;12.10;99.90
41058;DHT22;27499;48.884;2.258;2022-11-15T01:07:35;12.10;99.90
41058;DHT22;27499;48.884;2.258;2022-11-15T01:10:02;12.10;99.90
41058;DHT22;27499;48.884;2.258;2022-11-15T01:12:29;12.10;99.90
41058;DHT22;27499;48.884;2.258;2022-11-15T01:14:56;12.00;99.90
41058;DHT22;27499;48.884;2.258;2022-11-15T01:17:23;12.00;99.90
41058;DHT22;27499;48.884;2.258;2022-11-15T01:19:50;12.00;99.90
41058;DHT22;27499;48.884;2.258;2022-11-15T01:22:17;12.00;99.90
41058;DHT22;27499;48.884;2.258;2022-11-15T01:24:44;12.00;99.90
41058;DHT22;27499;48.884;2.258;2022-11-15T01:27:11;12.00;99.90
41058;DHT22;27499;48.884;2.258;2022-11-15T01:29:37;11.90;99.90
41058;DHT22;27499;48.884;2.258;2022-11-15T01:32:04;11.90;99.90
41058;DHT22;27499;48.884;2.258;2022-11-15T01:34:31;11.90;99.90
41058;DHT22;27499;48.884;2.258;2022-11-15T01:36:58;11.90;99.90
41058;DHT22;27499;48.884;2.258;2022-11-15T01:39:25;11.80;99.90
41058;DHT22;27499;48.884;2.258;2022-11-15T01:41:53;11.80;99.90
41058;DHT22;27499;48.884;2.258;2022-11-15T01:44:40;11.80;99.90
41058;DHT22;27499;48.884;2.258;2022-11-15T01:49:39;11.80;99.90
41058;DHT22;27499;48.884;2.258;2022-11-15T01:52:10;11.70;99.90
41058;DHT22;27499;48.884;2.258;2022-11-15T01:54:39;11.70;99.90
41058;DHT22;27499;48.884;2.258;2022-11-15T01:57:10;11.70;99.90
41058;DHT22;27499;48.884;2.258;2022-11-15T01:59:40;11.70;99.90
41058;DHT22;27499;48.884;2.258;2022-11-15T02:02:08;11.70;99.90
41058;DHT22;27499;48.884;2.258;2022-11-15T02:04:40;11.70;99.90
41058;DHT22;27499;48.884;2.258;2022-11-15T02:07:08;11.70;99.90
41058;DHT22;27499;48.884;2.258;2022-11-15T02:09:37;11.60;99.90
41058;DHT22;27499;48.884;2.258;2022-11-15T02:12:06;11.60;99.90
41058;DHT22;27499;48.884;2.258;2022-11-15T02:14:36;11.60;99.90
41058;DHT22;27499;48.884;2.258;2022-11-15T02:22:36;11.60;99.90
41058;DHT22;27499;48.884;2.258;2022-11-15T02:36:06;11.40;99.90
41058;DHT22;27499;48.884;2.258;2022-11-15T02:41:42;11.40;99.90
41058;DHT22;27499;48.884;2.258;2022-11-15T02:44:23;11.40;99.90
41058;DHT22;27499;48.884;2.258;2022-11-15T02:47:27;11.30;99.90
41058;DHT22;27499;48.884;2.258;2022-11-15T02:49:49;11.30;99.90
41058;DHT22;27499;48.884;2.258;2022-11-15T02:52:18;11.30;99.90
41058;DHT22;27499;48.884;2.258;2022-11-15T02:55:00;11.20;99.90
41058;DHT22;27499;48.884;2.258;2022-11-15T03:00:10;11.20;99.90
41058;DHT22;27499;48.884;2.258;2022-11-15T03:13:48;11.20;99.90
41058;DHT22;27499;48.884;2.258;2022-11-15T03:17:02;11.20;99.90
41058;DHT22;27499;48.884;2.258;2022-11-15T03:22:06;11.30;99.90
41058;DHT22;27499;48.884;2.258;2022-11-15T03:24:38;11.20;99.90
41058;DHT22;27499;48.884;2.258;2022-11-15T03:27:10;11.20;99.90
41058;DHT22;27499;48.884;2.258;2022-11-15T03:29:45;11.20;99.90
41058;DHT22;27499;48.884;2.258;2022-11-15T03:32:16;11.20;99.90
41058;DHT22;27499;48.884;2.258;2022-11-15T03:37:25;11.10;99.90
41058;DHT22;27499;48.884;2.258;2022-11-15T03:39:52;11.10;99.90
41058;DHT22;27499;48.884;2.258;2022-11-15T03:42:30;11.10;99.90
41058;DHT22;27499;48.884;2.258;2022-11-15T03:45:19;11.10;99.90
41058;DHT22;27499;48.884;2.258;2022-11-15T03:47:49;11.10;99.90
41058;DHT22;27499;48.884;2.258;2022-11-15T03:50:20;11.10;99.90
41058;DHT22;27499;48.884;2.258;2022-11-15T03:52:48;11.10;99.90
41058;DHT22;27499;48.884;2.258;2022-11-15T03:55:19;11.10;99.90
41058;DHT22;27499;48.884;2.258;2022-11-15T03:57:48;11.10;99.90
41058;DHT22;27499;48.884;2.258;2022-11-15T04:00:16;11.10;99.90
41058;DHT22;27499;48.884;2.258;2022-11-15T04:02:43;11.10;99.90
41058;DHT22;27499;48.884;2.258;2022-11-15T04:05:10;11.10;99.90
41058;DHT22;27499;48.884;2.258;2022-11-15T04:07:36;11.10;99.90
41058;DHT22;27499;48.884;2.258;2022-11-15T04:10:04;11.10;99.90
41058;DHT22;27499;48.884;2.258;2022-11-15T04:12:37;11.10;99.90
41058;DHT22;27499;48.884;2.258;2022-11-15T04:15:10;11.10;99.90
41058;DHT22;27499;48.884;2.258;2022-11-15T04:20:16;11.00;99.90
41058;DHT22;27499;48.884;2.258;2022-11-15T04:23:04;11.00;99.90
41058;DHT22;27499;48.884;2.258;2022-11-15T04:25:52;11.00;99.90
41058;DHT22;27499;48.884;2.258;2022-11-15T04:28:20;11.00;99.90
41058;DHT22;27499;48.884;2.258;2022-11-15T04:30:47;11.00;99.90
41058;DHT22;27499;48.884;2.258;2022-11-15T04:33:14;11.00;99.90
41058;DHT22;27499;48.884;2.258;2022-11-15T04:35:42;11.00;99.90
41058;DHT22;27499;48.884;2.258;2022-11-15T04:38:10;11.00;99.90
41058;DHT22;27499;48.884;2.258;2022-11-15T04:40:37;11.00;99.90
41058;DHT22;27499;48.884;2.258;2022-11-15T04:43:04;11.00;99.90
41058;DHT22;27499;48.884;2.258;2022-11-15T04:45:31;11.00;99.90
41058;DHT22;27499;48.884;2.258;2022-11-15T04:47:58;11.00;99.90
41058;DHT22;27499;48.884;2.258;2022-11-15T04:50:25;11.00;99.90
41058;DHT22;27499;48.884;2.258;2022-11-15T04:52:53;11.00;99.90
41058;DHT22;27499;48.884;2.258;2022-11-15T04:55:20;10.90;99.90
41058;DHT22;27499;48.884;2.258;2022-11-15T04:57:47;10.90;99.90
41058;DHT22;27499;48.884;2.258;2022-11-15T05:00:16;10.90;99.90
41058;DHT22;27499;48.884;2.258;2022-11-15T05:02:43;10.90;99.90
41058;DHT22;27499;48.884;2.258;2022-11-15T05:05:28;10.90;99.90
41058;DHT22;27499;48.884;2.258;2022-11-15T05:07:55;10.90;99.90
41058;DHT22;27499;48.884;2.258;2022-11-15T05:10:22;10.90;99.90
41058;DHT22;27499;48.884;2.258;2022-11-15T05:12:49;10.90;99.90
41058;DHT22;27499;48.884;2.258;2022-11-15T05:15:16;10.90;99.90
41058;DHT22;27499;48.884;2.258;2022-11-15T05:17:42;10.90;99.90
41058;DHT22;27499;48.884;2.258;2022-11-15T05:20:10;10.90;99.90
41058;DHT22;27499;48.884;2.258;2022-11-15T05:22:37;10.90;99.90
41058;DHT22;27499;48.884;2.258;2022-11-15T05:25:04;10.90;99.90
41058;DHT22;27499;48.884;2.258;2022-11-15T05:27:32;10.90;99.90
41058;DHT22;27499;48.884;2.258;2022-11-15T05:29:59;11.00;99.90
41058;DHT22;27499;48.884;2.258;2022-11-15T05:32:26;11.00;99.90
41058;DHT22;27499;48.884;2.258;2022-11-15T05:34:54;11.00;99.90
41058;DHT22;27499;48.884;2.258;2022-11-15T05:37:21;11.00;99.90
41058;DHT22;27499;48.884;2.258;2022-11-15T05:39:48;11.00;99.90
41058;DHT22;27499;48.884;2.258;2022-11-15T05:42:15;11.10;99.90
41058;DHT22;27499;48.884;2.258;2022-11-15T05:44:47;11.00;99.90
41058;DHT22;27499;48.884;2.258;2022-11-15T05:47:19;11.00;99.90
41058;DHT22;27499;48.884;2.258;2022-11-15T05:49:48;11.00;99.90
41058;DHT22;27499;48.884;2.258;2022-11-15T05:52:20;11.10;99.90
41058;DHT22;27499;48.884;2.258;2022-11-15T05:54:49;11.10;99.90
41058;DHT22;27499;48.884;2.258;2022-11-15T05:57:17;11.00;99.90
41058;DHT22;27499;48.884;2.258;2022-11-15T05:59:44;11.00;99.90
41058;DHT22;27499;48.884;2.258;2022-11-15T06:02:11;11.00;99.90
41058;DHT22;27499;48.884;2.258;2022-11-15T06:04:38;11.00;99.90
41058;DHT22;27499;48.884;2.258;2022-11-15T06:07:05;11.10;99.90
41058;DHT22;27499;48.884;2.258;2022-11-15T06:09:32;11.00;99.90
41058;DHT22;27499;48.884;2.258;2022-11-15T06:11:59;11.10;99.90
41058;DHT22;27499;48.884;2.258;2022-11-15T06:14:25;11.10;99.90
41058;DHT22;27499;48.884;2.258;2022-11-15T06:16:52;11.10;99.90
41058;DHT22;27499;48.884;2.258;2022-11-15T06:19:19;11.10;99.90
41058;DHT22;27499;48.884;2.258;2022-11-15T06:21:46;11.10;99.90
41058;DHT22;27499;48.884;2.258;2022-11-15T06:24:13;11.20;99.90
41058;DHT22;27499;48.884;2.258;2022-11-15T06:26:40;11.20;99.90
41058;DHT22;27499;48.884;2.258;2022-11-15T06:29:06;11.20;99.90
41058;DHT22;27499;48.884;2.258;2022-11-15T06:31:34;11.20;99.90
41058;DHT22;27499;48.884;2.258;2022-11-15T06:34:01;11.20;99.90
41058;DHT22;27499;48.884;2.258;2022-11-15T06:36:28;11.20;99.90
41058;DHT22;27499;48.884;2.258;2022-11-15T06:38:54;11.20;99.90
41058;DHT22;27499;48.884;2.258;2022-11-15T06:41:21;11.20;99.90
41058;DHT22;27499;48.884;2.258;2022-11-15T06:43:48;11.10;99.90
41058;DHT22;27499;48.884;2.258;2022-11-15T06:46:15;11.10;99.90
41058;DHT22;27499;48.884;2.258;2022-11-15T06:48:42;11.20;99.90
41058;DHT22;27499;48.884;2.258;2022-11-15T06:51:08;11.20;99.90
41058;DHT22;27499;48.884;2.258;2022-11-15T06:53:36;11.20;99.90
41058;DHT22;27499;48.884;2.258;2022-11-15T06:56:05;11.20;99.90
41058;DHT22;27499;48.884;2.258;2022-11-15T06:58:32;11.10;99.90
41058;DHT22;27499;48.884;2.258;2022-11-15T07:01:01;11.10;99.90
41058;DHT22;27499;48.884;2.258;2022-11-15T07:03:28;11.10;99.90
41058;DHT22;27499;48.884;2.258;2022-11-15T07:05:57;11.10;99.90
41058;DHT22;27499;48.884;2.258;2022-11-15T07:08:32;11.20;99.90
41058;DHT22;27499;48.884;2.258;2022-11-15T07:11:06;11.20;99.90
41058;DHT22;27499;48.884;2.258;2022-11-15T07:13:34;11.20;99.90
41058;DHT22;27499;48.884;2.258;2022-11-15T07:16:07;11.20;99.90
41058;DHT22;27499;48.884;2.258;2022-11-15T07:18:35;11.20;99.90
41058;DHT22;27499;48.884;2.258;2022-11-15T07:21:04;11.20;99.90
41058;DHT22;27499;48.884;2.258;2022-11-15T07:23:32;11.20;99.90
41058;DHT22;27499;48.884;2.258;2022-11-15T07:25:59;11.30;99.90
41058;DHT22;27499;48.884;2.258;2022-11-15T07:28:26;11.30;99.90
41058;DHT22;27499;48.884;2.258;2022-11-15T07:30:54;11.30;99.90
41058;DHT22;27499;48.884;2.258;2022-11-15T07:33:21;11.30;99.90
41058;DHT22;27499;48.884;2.258;2022-11-15T07:35:48;11.30;99.90
41058;DHT22;27499;48.884;2.258;2022-11-15T07:38:16;11.30;99.90
41058;DHT22;27499;48.884;2.258;2022-11-15T07:40:46;11.30;99.90
41058;DHT22;27499;48.884;2.258;2022-11-15T07:43:13;11.40;99.90
41058;DHT22;27499;48.884;2.258;2022-11-15T07:45:42;11.40;99.90
41058;DHT22;27499;48.884;2.258;2022-11-15T07:48:09;11.40;99.90
41058;DHT22;27499;48.884;2.258;2022-11-15T07:50:37;11.40;99.90
41058;DHT22;27499;48.884;2.258;2022-11-15T07:53:08;11.40;99.90
41058;DHT22;27499;48.884;2.258;2022-11-15T07:55:35;11.50;99.90
41058;DHT22;27499;48.884;2.258;2022-11-15T07:58:03;11.40;99.90
41058;DHT22;27499;48.884;2.258;2022-11-15T08:00:30;11.50;99.90
41058;DHT22;27499;48.884;2.258;2022-11-15T08:03:14;11.50;99.90
41058;DHT22;27499;48.884;2.258;2022-11-15T08:05:42;11.50;99.90
41058;DHT22;27499;48.884;2.258;2022-11-15T08:08:10;11.60;99.90
41058;DHT22;27499;48.884;2.258;2022-11-15T08:10:37;11.60;99.90
41058;DHT22;27499;48.884;2.258;2022-11-15T08:13:08;11.60;99.90
41058;DHT22;27499;48.884;2.258;2022-11-15T08:15:36;11.60;99.90
41058;DHT22;27499;48.884;2.258;2022-11-15T08:18:14;11.60;99.90
41058;DHT22;27499;48.884;2.258;2022-11-15T08:20:43;11.60;99.90
41058;DHT22;27499;48.884;2.258;2022-11-15T08:23:11;11.60;99.90
41058;DHT22;27499;48.884;2.258;2022-11-15T08:25:39;11.70;99.90
41058;DHT22;27499;48.884;2.258;2022-11-15T08:28:07;11.70;99.90
41058;DHT22;27499;48.884;2.258;2022-11-15T08:30:42;11.80;99.90
41058;DHT22;27499;48.884;2.258;2022-11-15T08:33:13;11.80;99.90
41058;DHT22;27499;48.884;2.258;2022-11-15T08:35:43;11.80;99.90
41058;DHT22;27499;48.884;2.258;2022-11-15T08:38:11;11.80;99.90
41058;DHT22;27499;48.884;2.258;2022-11-15T08:40:37;11.80;99.90
41058;DHT22;27499;48.884;2.258;2022-11-15T08:43:04;11.90;99.90
41058;DHT22;27499;48.884;2.258;2022-11-15T08:45:33;11.90;99.90
41058;DHT22;27499;48.884;2.258;2022-11-15T08:48:03;11.90;99.90
41058;DHT22;27499;48.884;2.258;2022-11-15T08:50:30;11.90;99.90
41058;DHT22;27499;48.884;2.258;2022-11-15T08:52:57;11.90;99.90
41058;DHT22;27499;48.884;2.258;2022-11-15T08:55:24;12.00;99.90
41058;DHT22;27499;48.884;2.258;2022-11-15T08:57:51;12.00;99.90
41058;DHT22;27499;48.884;2.258;2022-11-15T09:00:18;12.00;99.90
41058;DHT22;27499;48.884;2.258;2022-11-15T09:02:46;12.10;99.90
41058;DHT22;27499;48.884;2.258;2022-11-15T09:05:14;12.10;99.90
41058;DHT22;27499;48.884;2.258;2022-11-15T09:07:42;12.10;99.90
41058;DHT22;27499;48.884;2.258;2022-11-15T09:10:09;12.20;99.90
41058;DHT22;27499;48.884;2.258;2022-11-15T09:12:36;12.20;99.90
41058;DHT22;27499;48.884;2.258;2022-11-15T09:15:05;12.20;99.90
41058;DHT22;27499;48.884;2.258;2022-11-15T09:17:32;12.20;99.90
41058;DHT22;27499;48.884;2.258;2022-11-15T09:19:59;12.20;99.90
41058;DHT22;27499;48.884;2.258;2022-11-15T09:22:26;12.30;99.90
41058;DHT22;27499;48.884;2.258;2022-11-15T09:24:53;12.30;99.90
41058;DHT22;27499;48.884;2.258;2022-11-15T09:27:19;12.30;99.90
41058;DHT22;27499;48.884;2.258;2022-11-15T09:29:46;12.30;99.90
41058;DHT22;27499;48.884;2.258;2022-11-15T09:32:13;12.30;99.90
41058;DHT22;27499;48.884;2.258;2022-11-15T09:34:40;12.40;99.90
41058;DHT22;27499;48.884;2.258;2022-11-15T09:37:07;12.40;99.90
41058;DHT22;27499;48.884;2.258;2022-11-15T09:39:33;12.40;99.90
41058;DHT22;27499;48.884;2.258;2022-11-15T09:42:22;12.40;99.90
41058;DHT22;27499;48.884;2.258;2022-11-15T09:48:15;12.40;99.90
41058;DHT22;27499;48.884;2.258;2022-11-15T09:50:50;12.50;99.90
41058;DHT22;27499;48.884;2.258;2022-11-15T09:53:35;12.50;99.90
41058;DHT22;27499;48.884;2.258;2022-11-15T09:56:30;12.50;99.90
41058;DHT22;27499;48.884;2.258;2022-11-15T09:59:04;12.60;99.90
41058;DHT22;27499;48.884;2.258;2022-11-15T10:04:23;12.60;99.90
41058;DHT22;27499;48.884;2.258;2022-11-15T10:09:51;12.60;99.90
41058;DHT22;27499;48.884;2.258;2022-11-15T10:12:19;12.60;99.90
41058;DHT22;27499;48.884;2.258;2022-11-15T10:14:50;12.60;99.90
41058;DHT22;27499;48.884;2.258;2022-11-15T10:17:30;12.60;99.90
41058;DHT22;27499;48.884;2.258;2022-11-15T10:20:22;12.60;99.90
41058;DHT22;27499;48.884;2.258;2022-11-15T10:22:52;12.60;99.90
41058;DHT22;27499;48.884;2.258;2022-11-15T10:30:35;12.70;99.90
41058;DHT22;27499;48.884;2.258;2022-11-15T10:46:40;12.70;99.90
41058;DHT22;27499;48.884;2.258;2022-11-15T10:49:24;12.70;99.90
41058;DHT22;27499;48.884;2.258;2022-11-15T10:54:42;12.70;99.90
41058;DHT22;27499;48.884;2.258;2022-11-15T10:57:19;12.70;99.90
41058;DHT22;27499;48.884;2.258;2022-11-15T10:59:53;12.70;99.90
41058;DHT22;27499;48.884;2.258;2022-11-15T11:02:37;12.70;99.90
41058;DHT22;27499;48.884;2.258;2022-11-15T11:05:25;12.70;99.90
41058;DHT22;27499;48.884;2.258;2022-11-15T11:08:00;12.70;99.90
41058;DHT22;27499;48.884;2.258;2022-11-15T11:10:28;12.60;99.90
41058;DHT22;27499;48.884;2.258;2022-11-15T11:13:26;12.70;99.90
41058;DHT22;27499;48.884;2.258;2022-11-15T11:16:33;12.70;99.90
41058;DHT22;27499;48.884;2.258;2022-11-15T11:24:36;12.70;99.90
41058;DHT22;27499;48.884;2.258;2022-11-15T11:35:59;12.80;99.90
41058;DHT22;27499;48.884;2.258;2022-11-15T11:39:09;12.80;99.90
41058;DHT22;27499;48.884;2.258;2022-11-15T11:45:03;12.80;99.90
41058;DHT22;27499;48.884;2.258;2022-11-15T11:47:38;12.80;99.90
41058;DHT22;27499;48.884;2.258;2022-11-15T11:50:26;12.80;99.90
41058;DHT22;27499;48.884;2.258;2022-11-15T11:53:15;12.80;99.90
41058;DHT22;27499;48.884;2.258;2022-11-15T11:55:52;12.90;99.90
41058;DHT22;27499;48.884;2.258;2022-11-15T11:58:34;12.90;99.90
41058;DHT22;27499;48.884;2.258;2022-11-15T12:01:20;12.90;99.90
41058;DHT22;27499;48.884;2.258;2022-11-15T12:09:27;12.90;99.90
41058;DHT22;27499;48.884;2.258;2022-11-15T12:12:07;12.90;99.90
41058;DHT22;27499;48.884;2.258;2022-11-15T12:14:46;12.90;99.90
41058;DHT22;27499;48.884;2.258;2022-11-15T12:17:17;12.90;99.90
41058;DHT22;27499;48.884;2.258;2022-11-15T12:19:45;12.90;99.90
41058;DHT22;27499;48.884;2.258;2022-11-15T12:22:22;12.90;99.90
41058;DHT22;27499;48.884;2.258;2022-11-15T12:25:06;12.90;99.90
41058;DHT22;27499;48.884;2.258;2022-11-15T12:27:58;12.90;99.90
41058;DHT22;27499;48.884;2.258;2022-11-15T12:30:38;13.00;99.90
41058;DHT22;27499;48.884;2.258;2022-11-15T12:36:05;13.00;99.90
41058;DHT22;27499;48.884;2.258;2022-11-15T12:38:55;13.00;99.90
41058;DHT22;27499;48.884;2.258;2022-11-15T12:41:30;13.00;99.90
41058;DHT22;27499;48.884;2.258;2022-11-15T12:43:57;13.00;99.90
41058;DHT22;27499;48.884;2.258;2022-11-15T13:02:40;13.10;99.90
41058;DHT22;27499;48.884;2.258;2022-11-15T13:07:56;13.20;99.90
41058;DHT22;27499;48.884;2.258;2022-11-15T13:13:08;13.20;99.90
41058;DHT22;27499;48.884;2.258;2022-11-15T13:15:53;13.20;99.90
41058;DHT22;27499;48.884;2.258;2022-11-15T13:18:38;13.20;99.90
41058;DHT22;27499;48.884;2.258;2022-11-15T13:21:19;13.20;99.90
41058;DHT22;27499;48.884;2.258;2022-11-15T13:24:14;13.20;99.90
41058;DHT22;27499;48.884;2.258;2022-11-15T13:26:42;13.20;99.90
41058;DHT22;27499;48.884;2.258;2022-11-15T13:29:16;13.20;99.90
41058;DHT22;27499;48.884;2.258;2022-11-15T13:31:44;13.20;99.90
41058;DHT22;27499;48.884;2.258;2022-11-15T13:34:32;13.30;99.90
41058;DHT22;27499;48.884;2.258;2022-11-15T13:39:49;13.30;99.90
41058;DHT22;27499;48.884;2.258;2022-11-15T13:42:18;13.30;99.90
41058;DHT22;27499;48.884;2.258;2022-11-15T13:47:25;13.40;99.90
41058;DHT22;27499;48.884;2.258;2022-11-15T13:49:59;13.40;99.90
41058;DHT22;27499;48.884;2.258;2022-11-15T13:52:34;13.40;99.90
41058;DHT22;27499;48.884;2.258;2022-11-15T13:55:04;13.40;99.90
41058;DHT22;27499;48.884;2.258;2022-11-15T13:57:45;13.40;99.90
41058;DHT22;27499;48.884;2.258;2022-11-15T14:00:37;13.50;99.90
41058;DHT22;27499;48.884;2.258;2022-11-15T14:03:24;13.50;99.90
41058;DHT22;27499;48.884;2.258;2022-11-15T14:06:15;13.50;99.90
41058;DHT22;27499;48.884;2.258;2022-11-15T14:11:48;13.50;99.90
41058;DHT22;27499;48.884;2.258;2022-11-15T14:14:19;13.50;99.90
41058;DHT22;27499;48.884;2.258;2022-11-15T14:16:51;13.50;99.90
41058;DHT22;27499;48.884;2.258;2022-11-15T14:22:26;13.50;99.90
41058;DHT22;27499;48.884;2.258;2022-11-15T14:25:16;13.50;99.90
41058;DHT22;27499;48.884;2.258;2022-11-15T14:28:12;13.50;99.90
41058;DHT22;27499;48.884;2.258;2022-11-15T14:30:40;13.50;99.90
41058;DHT22;27499;48.884;2.258;2022-11-15T14:33:23;13.50;99.90
41058;DHT22;27499;48.884;2.258;2022-11-15T14:35:52;13.50;99.90
41058;DHT22;27499;48.884;2.258;2022-11-15T14:38:19;13.50;99.90
41058;DHT22;27499;48.884;2.258;2022-11-15T14:40:46;13.50;99.90
41058;DHT22;27499;48.884;2.258;2022-11-15T14:43:13;13.50;99.90
41058;DHT22;27499;48.884;2.258;2022-11-15T14:45:40;13.50;99.90
41058;DHT22;27499;48.884;2.258;2022-11-15T14:48:07;13.50;99.90
41058;DHT22;27499;48.884;2.258;2022-11-15T14:50:35;13.50;99.90
41058;DHT22;27499;48.884;2.258;2022-11-15T14:53:02;13.50;99.90
41058;DHT22;27499;48.884;2.258;2022-11-15T14:55:31;13.50;99.90
41058;DHT22;27499;48.884;2.258;2022-11-15T14:58:01;13.50;99.90
41058;DHT22;27499;48.884;2.258;2022-11-15T15:00:33;13.50;99.90
41058;DHT22;27499;48.884;2.258;2022-11-15T15:03:02;13.50;99.90
41058;DHT22;27499;48.884;2.258;2022-11-15T15:07:59;13.50;99.90
41058;DHT22;27499;48.884;2.258;2022-11-15T15:10:33;13.50;99.90
41058;DHT22;27499;48.884;2.258;2022-11-15T15:13:23;13.50;99.90
41058;DHT22;27499;48.884;2.258;2022-11-15T15:15:51;13.50;99.90
41058;DHT22;27499;48.884;2.258;2022-11-15T15:18:19;13.60;99.90
41058;DHT22;27499;48.884;2.258;2022-11-15T15:20:53;13.60;99.90
41058;DHT22;27499;48.884;2.258;2022-11-15T15:23:20;13.60;99.90
41058;DHT22;27499;48.884;2.258;2022-11-15T15:25:49;13.60;99.90
41058;DHT22;27499;48.884;2.258;2022-11-15T15:28:16;13.60;99.90
41058;DHT22;27499;48.884;2.258;2022-11-15T15:30:43;13.60;99.90
41058;DHT22;27499;48.884;2.258;2022-11-15T15:33:10;13.60;99.90
41058;DHT22;27499;48.884;2.258;2022-11-15T15:35:37;13.60;99.90
41058;DHT22;27499;48.884;2.258;2022-11-15T15:38:04;13.60;99.90
41058;DHT22;27499;48.884;2.258;2022-11-15T15:40:32;13.60;99.90
41058;DHT22;27499;48.884;2.258;2022-11-15T15:42:59;13.70;99.90
41058;DHT22;27499;48.884;2.258;2022-11-15T15:45:27;13.70;99.90
41058;DHT22;27499;48.884;2.258;2022-11-15T15:47:54;13.70;99.90
41058;DHT22;27499;48.884;2.258;2022-11-15T15:50:27;13.70;99.90
41058;DHT22;27499;48.884;2.258;2022-11-15T15:52:56;13.70;99.90
41058;DHT22;27499;48.884;2.258;2022-11-15T15:55:24;13.70;99.90
41058;DHT22;27499;48.884;2.258;2022-11-15T15:57:51;13.70;99.90
41058;DHT22;27499;48.884;2.258;2022-11-15T16:00:19;13.70;99.90
41058;DHT22;27499;48.884;2.258;2022-11-15T16:02:46;13.70;99.90
41058;DHT22;27499;48.884;2.258;2022-11-15T16:05:13;13.70;99.90
41058;DHT22;27499;48.884;2.258;2022-11-15T16:07:40;13.70;99.90
41058;DHT22;27499;48.884;2.258;2022-11-15T16:10:26;13.70;99.90
41058;DHT22;27499;48.884;2.258;2022-11-15T16:12:54;13.70;99.90
41058;DHT22;27499;48.884;2.258;2022-11-15T16:15:23;13.70;99.90
41058;DHT22;27499;48.884;2.258;2022-11-15T16:17:53;13.70;99.90
41058;DHT22;27499;48.884;2.258;2022-11-15T16:20:29;13.70;99.90
41058;DHT22;27499;48.884;2.258;2022-11-15T16:22:56;13.70;99.90
41058;DHT22;27499;48.884;2.258;2022-11-15T16:25:23;13.70;99.90
41058;DHT22;27499;48.884;2.258;2022-11-15T16:27:50;13.70;99.90
41058;DHT22;27499;48.884;2.258;2022-11-15T16:30:21;13.60;99.90
41058;DHT22;27499;48.884;2.258;2022-11-15T16:32:48;13.70;99.90
41058;DHT22;27499;48.884;2.258;2022-11-15T16:35:16;13.70;99.90
41058;DHT22;27499;48.884;2.258;2022-11-15T16:37:43;13.70;99.90
41058;DHT22;27499;48.884;2.258;2022-11-15T16:40:32;13.70;99.90
41058;DHT22;27499;48.884;2.258;2022-11-15T16:43:00;13.70;99.90
41058;DHT22;27499;48.884;2.258;2022-11-15T16:45:28;13.80;99.90
41058;DHT22;27499;48.884;2.258;2022-11-15T16:47:56;13.80;99.90
41058;DHT22;27499;48.884;2.258;2022-11-15T16:50:26;13.70;99.90
41058;DHT22;27499;48.884;2.258;2022-11-15T16:52:57;13.70;99.90
41058;DHT22;27499;48.884;2.258;2022-11-15T16:55:27;13.70;99.90
41058;DHT22;27499;48.884;2.258;2022-11-15T16:57:55;13.80;99.90
41058;DHT22;27499;48.884;2.258;2022-11-15T17:00:24;13.80;99.90
41058;DHT22;27499;48.884;2.258;2022-11-15T17:02:51;13.80;99.90
41058;DHT22;27499;48.884;2.258;2022-11-15T17:05:20;13.80;99.90
41058;DHT22;27499;48.884;2.258;2022-11-15T17:07:49;13.80;99.90
41058;DHT22;27499;48.884;2.258;2022-11-15T17:10:24;13.80;99.90
41058;DHT22;27499;48.884;2.258;2022-11-15T17:12:52;13.80;99.90
41058;DHT22;27499;48.884;2.258;2022-11-15T17:15:18;13.80;99.90
41058;DHT22;27499;48.884;2.258;2022-11-15T17:17:51;13.80;99.90
41058;DHT22;27499;48.884;2.258;2022-11-15T17:20:20;13.80;99.90
41058;DHT22;27499;48.884;2.258;2022-11-15T17:22:47;13.80;99.90
41058;DHT22;27499;48.884;2.258;2022-11-15T17:25:14;13.80;99.90
41058;DHT22;27499;48.884;2.258;2022-11-15T17:27:41;13.80;99.90
41058;DHT22;27499;48.884;2.258;2022-11-15T17:30:10;13.80;99.90
41058;DHT22;27499;48.884;2.258;2022-11-15T17:32:38;13.80;99.90
41058;DHT22;27499;48.884;2.258;2022-11-15T17:35:05;13.80;99.90
41058;DHT22;27499;48.884;2.258;2022-11-15T17:37:40;13.90;99.90
41058;DHT22;27499;48.884;2.258;2022-11-15T17:40:08;13.90;99.90
41058;DHT22;27499;48.884;2.258;2022-11-15T17:42:34;13.90;99.90
41058;DHT22;27499;48.884;2.258;2022-11-15T17:45:01;13.90;99.90
41058;DHT22;27499;48.884;2.258;2022-11-15T17:47:35;13.90;99.90
41058;DHT22;27499;48.884;2.258;2022-11-15T17:50:03;13.90;99.90
41058;DHT22;27499;48.884;2.258;2022-11-15T17:52:29;13.90;99.90
41058;DHT22;27499;48.884;2.258;2022-11-15T17:54:56;13.90;99.90
41058;DHT22;27499;48.884;2.258;2022-11-15T17:57:23;13.90;99.90
41058;DHT22;27499;48.884;2.258;2022-11-15T17:59:50;14.00;99.90
41058;DHT22;27499;48.884;2.258;2022-11-15T18:02:17;14.00;99.90
41058;DHT22;27499;48.884;2.258;2022-11-15T18:04:45;14.00;99.90
41058;DHT22;27499;48.884;2.258;2022-11-15T18:07:11;14.00;99.90
41058;DHT22;27499;48.884;2.258;2022-11-15T18:09:40;14.00;99.90